Asan, Guam
Current Conditions -  °F | °C
As of 5:54 AM on Monday 24 Nov 2014 (Local Time) from PGUM Reporting Station
Clear Clear  
Wind Chill: 27°   Ceiling: Unl
Heat Index: 30°   Visibility: 10mi
Dew Point: 25°   Wind: 7mph
Humidity: 90%   Direction: 80°E
Pressure: 29.88"   Gusts: NA
Location:  13.47°N, 144.71°E
Report Text: PGUM 231954Z 08006KT 10SM CLR 27/25 A2988 RMK AO2 SLP109 T02670250
Loading
Personal Weather Stations






























Interactive Weather Map New forecast layout! Learn more

10-Day Weather Forecast

Advertisements
Track Severe Weather on mobile